Terminal Aerodrome Forecast
Issued by NWS Louisville, KY

Home | Current Version | Previous Version | Text Only | Print | Product List | Glossary On
Versions: 1 2 3 4 5 6 7 8 9 10 11 12 13 14
000
FTUS43 KLMK 220500
TAFBWG
TAF
KBWG 220520Z 2206/2306 09004KT P6SM SCT040
     FM221000 14004KT 6SM BR BKN025
     FM221300 15009KT P6SM BKN015 OVC025
     FM230000 16009KT 4SM -SHRA BR OVC012=

USA.gov is the U.S. government's official web portal to all federal, state and local government web resources and services.